createdAt,value
2022-09-28T13:56:52.511Z,98664.15
2022-09-28T13:58:03.524Z,98664.94
2022-09-28T13:59:15.073Z,98659.79
2022-09-28T14:00:29.994Z,98666.16
2022-09-28T14:01:38.527Z,98664.15
2022-09-28T14:03:01.383Z,98668.66
2022-09-28T14:04:19.034Z,98673.78
2022-09-28T14:05:25.127Z,98667.77
2022-09-28T14:06:32.513Z,98681.45
2022-09-28T14:07:38.375Z,98679.72
2022-09-28T14:09:49.834Z,98693.30
2022-09-28T14:12:24.649Z,98682.81
2022-09-28T14:13:45.851Z,98683.77
2022-09-28T14:14:51.839Z,98686.28
2022-09-28T14:15:57.890Z,98683.30
2022-09-28T14:17:22.162Z,98685.64
2022-09-28T14:18:27.969Z,98678.14
2022-09-28T14:19:33.253Z,98677.83
2022-09-28T14:20:36.277Z,98677.34
2022-09-28T14:21:45.218Z,98670.83
2022-09-28T14:23:10.862Z,98678.84
2022-09-28T14:24:45.313Z,98675.34
2022-09-28T14:27:39.027Z,98675.73
2022-09-28T14:28:51.204Z,98681.20
2022-09-28T14:29:58.516Z,98680.05
2022-09-28T14:31:10.627Z,98686.55
2022-09-28T14:32:16.524Z,98679.39
2022-09-28T14:33:22.317Z,98678.53
2022-09-28T14:34:28.035Z,98688.55
2022-09-28T14:35:41.353Z,98679.23
2022-09-28T14:36:48.359Z,98641.69
2022-09-28T14:37:54.065Z,98686.86
2022-09-28T14:38:56.104Z,98681.87
2022-09-28T14:39:58.273Z,98695.70
2022-09-28T14:41:06.953Z,98697.36
2022-09-28T14:42:13.024Z,98698.84
2022-09-28T14:43:28.072Z,98692.09
2022-09-28T14:44:33.761Z,98696.61
2022-09-28T14:45:36.433Z,98696.45
2022-09-28T14:46:46.437Z,98702.11
2022-09-28T14:48:13.687Z,98697.23
2022-09-28T14:49:22.308Z,98697.70
2022-09-28T14:50:26.906Z,98705.35
2022-09-28T14:51:32.680Z,98700.02
2022-09-28T14:52:41.348Z,98709.00
2022-09-28T14:53:44.928Z,98703.67
2022-09-28T14:54:55.136Z,98703.95
2022-09-28T14:55:59.051Z,98710.17
2022-09-28T14:57:07.564Z,98701.27
2022-09-28T14:58:13.278Z,98709.16
2022-09-28T14:59:28.073Z,98714.63
2022-09-28T15:00:30.566Z,98707.78
2022-09-28T15:01:35.323Z,98719.14
2022-09-28T15:02:38.358Z,98711.59
2022-09-28T15:03:45.028Z,98717.77
2022-09-28T15:04:53.507Z,98713.90
2022-09-28T15:05:55.877Z,98712.05
2022-09-28T15:06:57.898Z,98726.23
2022-09-28T15:08:00.102Z,98720.47
2022-09-28T15:09:02.395Z,98722.98
2022-09-28T15:10:08.479Z,98724.83
2022-09-28T15:11:14.164Z,98722.83
2022-09-28T15:12:19.894Z,98729.55
2022-09-28T15:13:27.130Z,98729.16
2022-09-28T15:14:31.302Z,98733.81
2022-09-28T15:15:39.143Z,98730.17
2022-09-28T15:16:41.892Z,98731.52
2022-09-28T15:17:47.545Z,98732.69
2022-09-28T15:19:11.390Z,98737.50
2022-09-28T15:20:25.926Z,98736.48
2022-09-28T15:21:34.935Z,98743.81
2022-09-28T15:22:39.239Z,98739.09
2022-09-28T15:23:43.572Z,98743.60
2022-09-28T15:25:02.419Z,98736.58
2022-09-28T15:26:05.280Z,98747.33
2022-09-28T15:27:15.995Z,98745.90
2022-09-28T15:28:20.093Z,98743.69
2022-09-28T15:29:22.454Z,98732.61
2022-09-28T15:30:33.245Z,98747.33
2022-09-28T15:31:36.036Z,98751.99
2022-09-28T15:32:37.928Z,98750.68
2022-09-28T15:33:40.762Z,98757.70
2022-09-28T15:34:42.681Z,98752.97
2022-09-28T15:35:54.429Z,98751.99
2022-09-28T15:36:57.064Z,98754.66
2022-09-28T15:37:59.224Z,98756.63
2022-09-28T15:39:04.876Z,98760.30
2022-09-28T15:40:13.669Z,98764.02
2022-09-28T15:41:16.379Z,98759.22
2022-09-28T15:42:19.009Z,98766.84
2022-09-28T15:43:29.274Z,98764.39
2022-09-28T15:44:34.483Z,98765.78
2022-09-28T15:45:39.344Z,98767.20
2022-09-28T15:46:44.461Z,98769.88
2022-09-28T15:47:46.655Z,98769.49
2022-09-28T15:48:52.295Z,98771.00
2022-09-28T15:50:00.843Z,98774.44
2022-09-28T15:51:08.938Z,98770.62
2022-09-28T15:52:31.634Z,98768.33
2022-09-28T15:53:33.858Z,98770.77
2022-09-28T15:54:42.564Z,98767.66
2022-09-28T15:55:46.584Z,98763.48
2022-09-28T15:58:16.940Z,98762.11
2022-09-28T15:59:22.676Z,98771.19
2022-09-28T16:00:28.352Z,98763.48
2022-09-28T16:03:03.147Z,98777.43
2022-09-28T16:04:38.086Z,98778.62
2022-09-28T16:05:49.652Z,98776.66
2022-09-28T16:07:10.560Z,98780.45
2022-09-28T16:08:15.977Z,98783.27
2022-09-28T16:09:32.630Z,98779.92
2022-09-28T16:10:36.110Z,98784.25
2022-09-28T16:11:40.120Z,98786.44
2022-09-28T16:12:45.807Z,98783.19
2022-09-28T16:14:18.891Z,98789.49
2022-09-28T16:15:25.065Z,98788.75
2022-09-28T16:16:36.963Z,98787.84
2022-09-28T16:17:39.323Z,98785.31
2022-09-28T16:18:44.961Z,98789.78
2022-09-28T16:19:46.901Z,98792.88
2022-09-28T16:20:51.865Z,98794.83
2022-09-28T16:22:03.846Z,98788.47
2022-09-28T16:23:28.073Z,98789.59
2022-09-28T16:24:36.081Z,98788.77
2022-09-28T16:25:38.382Z,98788.72
2022-09-28T16:26:40.669Z,98782.95
2022-09-28T16:27:43.169Z,98787.31
2022-09-28T16:28:47.779Z,98785.91
2022-09-28T16:30:06.214Z,98792.66
2022-09-28T16:32:38.046Z,98793.46
2022-09-28T16:33:45.583Z,98796.03
2022-09-28T16:35:06.456Z,98793.91
2022-09-28T16:37:31.285Z,98790.65
2022-09-28T16:38:33.362Z,98798.28
2022-09-28T16:39:37.377Z,98802.78
2022-09-28T16:40:41.963Z,98793.66
2022-09-28T16:41:47.746Z,98801.66
2022-09-28T16:42:51.804Z,98798.23
2022-09-28T16:44:00.466Z,98798.50
2022-09-28T16:45:04.409Z,98794.14
2022-09-28T16:46:17.065Z,98800.89
2022-09-28T16:47:20.897Z,98795.41
2022-09-28T16:48:31.553Z,98804.33
2022-09-28T16:49:33.628Z,98802.92
2022-09-28T16:50:37.480Z,98794.63
2022-09-28T16:51:39.625Z,98795.70
2022-09-28T16:52:42.024Z,98798.84
2022-09-28T16:53:44.972Z,98802.63
2022-09-28T16:54:46.946Z,98803.31
2022-09-28T16:55:51.026Z,98802.63
2022-09-28T16:56:55.128Z,98805.15
2022-09-28T16:57:59.364Z,98810.09
2022-09-28T16:59:02.117Z,98803.62
2022-09-28T17:00:08.119Z,98803.62
2022-09-28T17:01:11.643Z,98806.14
2022-09-28T17:03:24.657Z,98804.76
2022-09-28T17:04:28.619Z,98800.55
2022-09-28T17:05:32.413Z,98745.80
2022-09-28T17:06:37.152Z,98805.45
2022-09-28T17:07:40.192Z,98811.75
2022-09-28T17:08:42.660Z,98791.02
2022-09-28T17:09:45.225Z,98811.21
2022-09-28T17:11:14.032Z,98818.38
2022-09-28T17:11:57.591Z,98814.02
2022-09-28T17:13:00.737Z,98807.28
2022-09-28T17:14:03.511Z,98814.42
2022-09-28T17:15:06.521Z,98810.92
2022-09-28T17:16:16.780Z,98817.38
2022-09-28T17:17:20.664Z,98812.33
2022-09-28T17:18:23.191Z,98813.30
2022-09-28T17:19:25.318Z,98807.29
2022-09-28T17:20:29.059Z,98811.77
2022-09-28T17:21:31.020Z,98813.45
2022-09-28T17:22:33.001Z,98820.19
2022-09-28T17:23:35.107Z,98819.36
2022-09-28T17:24:37.134Z,98821.05
2022-09-28T17:25:39.984Z,98822.13
2022-09-28T17:26:43.725Z,98820.62
2022-09-28T17:27:47.330Z,98826.38
2022-09-28T17:28:49.246Z,98815.00
2022-09-28T17:29:51.312Z,98821.30
2022-09-28T17:30:53.759Z,98827.20
2022-09-28T17:31:55.942Z,98828.61
2022-09-28T17:32:59.119Z,98832.83
2022-09-28T17:34:01.141Z,98824.55
2022-09-28T17:35:23.659Z,98828.61
2022-09-28T17:36:11.595Z,98822.71
2022-09-28T17:37:14.795Z,98830.45
2022-09-28T17:38:16.896Z,98829.45
2022-09-28T17:39:18.931Z,98833.66
2022-09-28T17:40:28.990Z,98828.76
2022-09-28T17:41:31.124Z,98833.66
2022-09-28T17:42:33.060Z,98837.36
2022-09-28T17:43:34.954Z,98844.92
2022-09-28T17:44:36.844Z,98849.42
2022-09-28T17:45:39.575Z,98847.88
2022-09-28T17:46:43.919Z,98856.16
2022-09-28T17:47:49.145Z,98855.03
2022-09-28T17:48:53.372Z,98850.11
2022-09-28T17:49:55.131Z,98859.25
2022-09-28T17:50:57.313Z,98855.75
2022-09-28T17:52:01.992Z,98856.73
2022-09-28T17:53:10.727Z,98858.28
2022-09-28T17:54:14.517Z,98853.89
2022-09-28T17:55:16.871Z,98857.25
2022-09-28T17:56:19.030Z,98867.79
2022-09-28T17:57:20.929Z,98871.58
2022-09-28T17:58:22.822Z,98871.14
2022-09-28T17:59:24.768Z,98870.17
2022-09-28T18:00:27.487Z,98877.47
2022-09-28T18:01:31.430Z,98876.06
2022-09-28T18:02:33.763Z,98882.68
2022-09-28T18:03:35.986Z,98883.09
2022-09-28T18:04:51.903Z,98848.05
2022-09-28T18:05:44.257Z,98875.66
2022-09-28T18:06:46.179Z,98887.17
2022-09-28T18:07:48.312Z,98891.53
2022-09-28T18:08:50.403Z,98896.17
2022-09-28T18:11:08.137Z,98889.83
2022-09-28T18:12:10.080Z,98892.36
2022-09-28T18:13:13.070Z,98896.86
2022-09-28T18:14:15.007Z,98898.53
2022-09-28T18:15:20.138Z,98896.00
2022-09-28T18:16:22.383Z,98903.72
2022-09-28T18:17:24.578Z,98862.81
2022-09-28T18:18:26.852Z,98908.63
2022-09-28T18:19:32.156Z,98910.87
2022-09-28T18:20:34.228Z,98907.80
2022-09-28T18:21:36.397Z,98917.02
2022-09-28T18:22:38.801Z,98920.10
2022-09-28T18:23:41.055Z,98920.69
2022-09-28T18:24:45.765Z,98918.98
2022-09-28T18:25:50.260Z,98921.23
2022-09-28T18:26:52.338Z,98922.57
2022-09-28T18:27:54.230Z,98915.86
2022-09-28T18:28:56.204Z,98918.98
2022-09-28T18:29:58.204Z,98922.34
2022-09-28T18:31:09.058Z,98920.37
2022-09-28T18:32:11.303Z,98913.06
2022-09-28T18:33:13.623Z,98922.05
2022-09-28T18:34:15.965Z,98915.03
2022-09-28T18:35:22.584Z,98920.35
2022-09-28T18:36:30.033Z,98918.69
2022-09-28T18:37:38.687Z,98919.93
2022-09-28T18:38:40.861Z,98922.44
2022-09-28T18:39:44.466Z,98924.40
2022-09-28T18:40:46.974Z,98925.23
2022-09-28T18:41:49.034Z,98935.05
2022-09-28T18:42:51.169Z,98922.28
2022-09-28T18:43:53.455Z,98929.34
2022-09-28T18:44:55.394Z,98927.94
2022-09-28T18:45:57.304Z,98943.33
2022-09-28T18:46:59.360Z,98943.73
2022-09-28T18:48:01.646Z,98941.59
2022-09-28T18:49:03.741Z,98947.09
2022-09-28T18:51:20.134Z,98943.47
2022-09-28T18:52:22.101Z,98948.41
2022-09-28T18:53:24.704Z,98955.69
2022-09-28T18:54:26.674Z,98950.63
2022-09-28T18:55:29.966Z,98952.33
2022-09-28T18:56:33.626Z,98956.21
2022-09-28T18:57:36.062Z,98962.78
2022-09-28T18:58:40.009Z,98940.42
2022-09-28T18:59:42.606Z,98954.75
2022-09-28T19:00:44.557Z,98945.99
2022-09-28T19:01:46.826Z,98957.13
2022-09-28T19:02:49.019Z,98958.63
2022-09-28T19:03:51.290Z,98958.50
2022-09-28T19:04:53.497Z,98960.79
2022-09-28T19:05:55.378Z,98960.11
2022-09-28T19:06:57.255Z,98963.64
2022-09-28T19:07:59.305Z,98970.09
2022-09-28T19:09:01.504Z,98969.52
2022-09-28T19:10:04.435Z,98964.20
2022-09-28T19:11:09.977Z,98972.63
2022-09-28T19:12:12.752Z,98972.63
2022-09-28T19:13:14.763Z,98971.80
2022-09-28T19:14:18.769Z,98972.19
2022-09-28T19:15:20.878Z,98971.29
2022-09-28T19:16:25.684Z,98968.57
2022-09-28T19:17:27.628Z,98972.50
2022-09-28T19:18:32.377Z,98972.70
2022-09-28T19:19:34.276Z,98975.61
2022-09-28T19:20:38.287Z,98984.70
2022-09-28T19:21:43.972Z,98976.54
2022-09-28T19:22:50.478Z,98984.51
2022-09-28T19:23:54.856Z,98984.51
2022-09-28T19:24:58.971Z,98993.82
2022-09-28T19:26:07.605Z,98983.83
2022-09-28T19:27:09.817Z,98991.42
2022-09-28T19:28:19.090Z,98995.64
2022-09-28T19:29:21.579Z,98992.86
2022-09-28T19:30:23.767Z,98992.61
2022-09-28T19:31:26.077Z,98999.00
2022-09-28T19:32:28.476Z,98999.77
2022-09-28T19:33:34.856Z,98996.73
2022-09-28T19:34:34.511Z,99010.14
2022-09-28T19:35:36.403Z,98947.88
2022-09-28T19:36:41.039Z,99014.79
2022-09-28T19:37:48.929Z,99012.27
2022-09-28T19:38:56.510Z,99019.11
2022-09-28T19:39:58.449Z,99025.29
2022-09-28T19:41:00.773Z,99016.45
2022-09-28T19:42:05.418Z,99021.77
2022-09-28T19:43:07.459Z,99022.80
2022-09-28T19:44:15.430Z,99018.69
2022-09-28T19:45:17.408Z,99018.20
2022-09-28T19:46:21.285Z,99018.78
2022-09-28T19:47:26.419Z,99018.91
2022-09-28T19:48:32.273Z,99023.88
2022-09-28T19:49:36.832Z,98968.08
2022-09-28T19:50:38.799Z,99025.33
2022-09-28T19:52:01.652Z,99020.39
2022-09-28T19:52:45.433Z,99026.78
2022-09-28T19:53:47.333Z,99032.22
2022-09-28T19:54:51.271Z,99034.16
2022-09-28T19:55:55.797Z,99026.08
2022-09-28T19:56:58.085Z,99028.14
2022-09-28T19:57:59.965Z,99034.41
2022-09-28T19:59:03.068Z,99030.67
2022-09-28T20:00:06.373Z,99035.48
2022-09-28T20:01:08.477Z,99032.70
2022-09-28T20:02:11.187Z,99038.55
2022-09-28T20:03:15.444Z,99043.33
2022-09-28T20:05:28.874Z,99045.61
2022-09-28T20:06:31.327Z,99049.38
2022-09-28T20:07:35.148Z,99052.15
2022-09-28T20:08:40.210Z,99057.58
2022-09-28T20:09:41.139Z,99053.23
2022-09-28T20:10:51.738Z,99052.39
2022-09-28T20:11:55.730Z,99057.25
2022-09-28T20:12:57.716Z,99060.23
2022-09-28T20:13:59.709Z,99060.48
2022-09-28T20:15:01.661Z,99057.23
2022-09-28T20:16:09.124Z,99064.95
2022-09-28T20:17:12.692Z,99057.36
2022-09-28T20:18:15.979Z,99058.06
2022-09-28T20:19:17.951Z,99061.67
2022-09-28T20:20:22.331Z,99064.33
2022-09-28T20:21:28.301Z,99062.91
2022-09-28T20:22:32.099Z,99064.22
2022-09-28T20:23:36.889Z,99077.48
2022-09-28T20:24:38.733Z,99068.94
2022-09-28T20:25:42.689Z,99066.99
2022-09-28T20:26:44.969Z,99070.25
2022-09-28T20:27:54.295Z,99070.52
2022-09-28T20:28:55.500Z,99069.64
2022-09-28T20:29:57.592Z,99076.77
2022-09-28T20:31:09.034Z,99076.89
2022-09-28T20:32:11.309Z,99076.18
2022-09-28T20:33:19.151Z,99076.18
2022-09-28T20:34:17.818Z,99074.72
2022-09-28T20:35:32.297Z,99078.95
2022-09-28T20:36:26.397Z,99078.09
2022-09-28T20:37:28.995Z,99083.91
2022-09-28T20:38:30.890Z,99082.80
2022-09-28T20:39:32.891Z,99082.20
2022-09-28T20:40:36.009Z,99079.31
2022-09-28T20:41:38.208Z,99085.57
2022-09-28T20:42:42.142Z,99078.56
2022-09-28T20:43:45.400Z,99024.91
2022-09-28T20:44:49.200Z,99088.10
2022-09-28T20:45:52.437Z,99088.94
2022-09-28T20:46:54.924Z,99090.86
2022-09-28T20:47:57.153Z,99095.57
2022-09-28T20:49:01.621Z,99092.09
2022-09-28T20:51:18.577Z,99092.56
2022-09-28T20:52:21.111Z,99094.45
2022-09-28T20:53:24.967Z,99100.27
2022-09-28T20:54:28.931Z,99096.64
2022-09-28T20:55:30.710Z,99099.27
2022-09-28T20:56:34.355Z,99099.73
2022-09-28T20:57:36.336Z,99098.67
2022-09-28T20:58:39.626Z,99108.09
2022-09-28T20:59:41.542Z,99104.20
2022-09-28T21:00:43.452Z,99107.44
2022-09-28T21:01:45.429Z,99109.97
2022-09-28T21:02:54.517Z,99111.53
2022-09-28T21:04:04.288Z,99108.99
2022-09-28T21:05:09.428Z,99109.56
2022-09-28T21:06:12.471Z,99114.03
2022-09-28T21:07:16.422Z,99109.83
2022-09-28T21:08:20.678Z,99112.70
2022-09-28T21:09:22.629Z,99117.05
2022-09-28T21:10:24.734Z,99118.72
2022-09-28T21:11:29.460Z,99120.66
2022-09-28T21:12:31.477Z,99118.98
2022-09-28T21:13:33.389Z,99123.64
2022-09-28T21:14:35.363Z,99114.59
2022-09-28T21:15:37.296Z,99118.69
2022-09-28T21:16:39.426Z,99134.47
2022-09-28T21:17:41.581Z,99121.34
2022-09-28T21:18:44.284Z,99125.08
2022-09-28T21:19:46.292Z,99122.27
2022-09-28T21:20:50.184Z,99123.56
2022-09-28T21:21:52.193Z,99124.87
2022-09-28T21:22:54.161Z,99118.26
2022-09-28T21:23:57.177Z,99119.13
2022-09-28T21:24:59.061Z,99124.65
2022-09-28T21:26:07.298Z,99125.15
2022-09-28T21:27:09.229Z,99125.15
2022-09-28T21:28:13.674Z,99129.73
2022-09-28T21:29:15.605Z,99130.17
2022-09-28T21:30:17.598Z,99132.70
2022-09-28T21:31:22.700Z,99127.86
2022-09-28T21:32:24.548Z,99129.69
2022-09-28T21:33:26.740Z,99130.45
2022-09-28T21:34:28.687Z,99124.93
2022-09-28T21:35:36.023Z,99126.10
2022-09-28T21:36:41.618Z,99121.30
2022-09-28T21:37:43.692Z,99124.06
2022-09-28T21:38:48.927Z,99122.39
2022-09-28T21:39:52.891Z,99123.23
2022-09-28T21:40:56.828Z,99116.87
2022-09-28T21:41:58.949Z,99127.05
2022-09-28T21:43:00.980Z,99129.80
2022-09-28T21:44:02.869Z,99129.30
2022-09-28T21:45:07.207Z,99127.06
2022-09-28T21:46:09.870Z,99088.92
2022-09-28T21:47:12.141Z,99130.91
2022-09-28T21:48:14.554Z,99136.64
2022-09-28T21:49:16.558Z,99123.40
2022-09-28T21:51:31.023Z,99130.91
2022-09-28T21:52:36.303Z,99136.34
2022-09-28T21:53:38.572Z,99133.70
2022-09-28T21:54:42.706Z,99141.53
2022-09-28T21:55:44.592Z,99143.77
2022-09-28T21:56:46.594Z,99147.26
2022-09-28T21:57:53.627Z,99142.50
2022-09-28T21:58:56.276Z,99149.92
2022-09-28T21:59:58.177Z,99152.06
2022-09-28T22:01:03.775Z,99152.79
2022-09-28T22:02:05.833Z,99152.89
2022-09-28T22:03:07.840Z,99153.22
2022-09-28T22:04:10.594Z,99151.75
2022-09-28T22:05:14.033Z,99153.64
2022-09-28T22:06:18.778Z,99138.65
2022-09-28T22:07:20.742Z,99158.93
2022-09-28T22:08:23.151Z,99160.84
2022-09-28T22:09:25.052Z,99162.76
2022-09-28T22:10:27.117Z,99168.05
2022-09-28T22:11:29.113Z,99167.22
2022-09-28T22:12:31.106Z,99175.02
2022-09-28T22:13:35.285Z,99173.45
2022-09-28T22:14:37.212Z,99176.41
2022-09-28T22:15:39.129Z,99181.80
2022-09-28T22:16:41.081Z,99176.72
2022-09-28T22:17:43.005Z,99175.26
2022-09-28T22:18:46.135Z,99179.05
2022-09-28T22:19:50.024Z,99174.80
2022-09-28T22:21:07.052Z,99174.80
2022-09-28T22:22:08.989Z,99179.26
2022-09-28T22:23:11.866Z,99176.72
2022-09-28T22:24:13.928Z,99183.08
2022-09-28T22:25:16.563Z,99183.19
2022-09-28T22:26:21.515Z,99174.59
2022-09-28T22:27:23.659Z,99173.75
2022-09-28T22:28:26.085Z,99178.41
2022-09-28T22:29:28.314Z,99177.55
2022-09-28T22:30:30.439Z,99175.66
2022-09-28T22:31:35.543Z,99182.83
2022-09-28T22:32:38.088Z,99184.73
2022-09-28T22:33:40.495Z,99179.55
2022-09-28T22:34:44.325Z,99184.42
2022-09-28T22:35:46.520Z,99179.77
2022-09-28T22:36:48.434Z,99187.80
2022-09-28T22:37:50.455Z,99188.97
2022-09-28T22:38:55.317Z,99188.09
2022-09-28T22:39:57.253Z,99188.09
2022-09-28T22:40:59.359Z,99188.34
2022-09-28T22:42:01.445Z,99194.77
2022-09-28T22:43:03.363Z,99189.14
2022-09-28T22:44:05.558Z,99192.52
2022-09-28T22:45:08.143Z,99183.55
2022-09-28T22:46:13.356Z,99191.28
2022-09-28T22:47:15.377Z,99187.88
2022-09-28T22:48:17.250Z,99185.35
2022-09-28T22:49:19.225Z,99183.42
2022-09-28T22:50:21.167Z,99183.22
2022-09-28T22:51:25.044Z,99192.83
2022-09-28T22:52:26.968Z,99191.02
2022-09-28T22:53:29.175Z,99196.70
2022-09-28T22:54:31.490Z,99190.78
2022-09-28T22:55:33.388Z,99188.10
2022-09-28T22:56:35.364Z,99198.47
2022-09-28T22:57:37.246Z,99186.77
2022-09-28T22:58:41.142Z,99196.17
2022-09-28T22:59:43.242Z,99191.02
2022-09-28T23:00:45.331Z,99198.38
2022-09-28T23:01:47.270Z,99195.83
2022-09-28T23:02:49.453Z,99190.74
2022-09-28T23:03:52.792Z,99194.36
2022-09-28T23:04:54.684Z,99188.20
2022-09-28T23:05:56.801Z,99197.73
2022-09-28T23:06:58.850Z,99192.35
2022-09-28T23:08:01.359Z,99185.56
2022-09-28T23:09:03.840Z,99191.81
2022-09-28T23:10:06.481Z,99192.11
2022-09-28T23:11:08.790Z,99198.90
2022-09-28T23:12:10.689Z,99198.33
2022-09-28T23:13:13.005Z,99194.11
2022-09-28T23:14:14.883Z,99194.70
2022-09-28T23:15:16.781Z,99191.13
2022-09-28T23:16:19.896Z,99197.88
2022-09-28T23:17:21.912Z,99191.22
2022-09-28T23:18:26.095Z,99195.53
2022-09-28T23:19:28.008Z,99200.17
2022-09-28T23:20:29.936Z,99201.11
2022-09-28T23:21:32.273Z,99195.92
2022-09-28T23:22:34.166Z,99200.37
2022-09-28T23:23:36.708Z,99200.21
2022-09-28T23:24:38.590Z,99195.03
2022-09-28T23:25:40.455Z,99206.52
2022-09-28T23:26:42.464Z,99197.58
2022-09-28T23:27:49.068Z,99194.00
2022-09-28T23:28:51.736Z,99207.94
2022-09-28T23:29:53.837Z,99201.73
2022-09-28T23:30:55.827Z,99198.22
2022-09-28T23:31:57.840Z,99200.95
2022-09-28T23:32:59.974Z,99193.13
2022-09-28T23:34:04.678Z,99196.83
2022-09-28T23:35:07.997Z,99202.11
2022-09-28T23:36:11.159Z,99199.63
2022-09-28T23:37:13.049Z,99202.11
2022-09-28T23:38:17.290Z,99205.48
2022-09-28T23:39:19.277Z,99208.31
2022-09-28T23:40:21.344Z,99200.03
2022-09-28T23:41:23.683Z,99201.75
2022-09-28T23:42:25.814Z,99208.89
2022-09-28T23:43:27.687Z,99210.50
2022-09-28T23:44:29.609Z,99207.21
2022-09-28T23:45:31.784Z,99211.94
2022-09-28T23:46:34.024Z,99209.95
2022-09-28T23:47:36.642Z,99212.68
2022-09-28T23:48:38.765Z,99222.67
2022-09-28T23:49:40.723Z,99225.31
2022-09-28T23:50:43.643Z,99224.63
2022-09-28T23:51:45.793Z,99235.96
2022-09-28T23:52:48.092Z,99235.09
2022-09-28T23:53:52.154Z,99230.69
2022-09-28T23:54:54.400Z,99233.14
2022-09-28T23:55:56.334Z,99234.91
2022-09-28T23:56:58.292Z,99230.50
2022-09-28T23:58:00.381Z,99233.23
2022-09-28T23:59:02.266Z,99233.05
